Sveva — IBEU — position and weather

sailwx.info

Track history (hours):
 
Tides and Currents Weather Stations Pressure Air Temp Water Temp Dewpoint Dewpoint Depression Visibility Wind Speed Wind Dir Waves Ship Positions

Sveva

Last reported at 2016-Feb-11 14:33 UTC. Time now 2016-Feb-13 21:30 UTC.
Position N 50°28' W 000°04'.

Length 136 m; draft 8.3 m.

Type: Ship (hazmat cat B). MMSI: 247359000.

Date/timePositionNaut miles runAvg speedWind from/ knotsBaromVisibWave heightAir tempDewpointWater temp
2016-Feb-11 14:33N 50°28' W 000°04'4811.9
2016-Feb-11 10:32N 50°50' E 001°02'1413.7
2016-Feb-11 09:33N 50°59' E 001°19'1615.6
2016-Feb-11 08:33N 51°09' E 001°37'1414.4
2016-Feb-11 07:33N 51°20' E 001°53'1412.5
2016-Feb-11 06:27N 51°31' E 002°06'1011.4
2016-Feb-11 05:33N 51°39' E 002°17'5010.0
2016-Feb-11 00:33N 52°03' E 003°28'1212.2
2016-Feb-10 23:34N 52°03' E 003°47'10 9.6
2016-Feb-10 22:34N 51°60' E 004°02'1312.7
2016-Feb-10 21:33N 51°54' E 004°20'1 1.1
2016-Feb-10 20:27N 51°54' E 004°22'0 0.0
2016-Feb-10 18:33N 51°54' E 004°22'0 0.0
2016-Feb-10 17:27N 51°54' E 004°22'0 0.0
2016-Feb-10 16:33N 51°54' E 004°22'0 0.0
2016-Feb-10 15:33N 51°54' E 004°22'0 0.0
2016-Feb-10 14:27N 51°54' E 004°22'0 0.0
2016-Feb-10 13:33N 51°54' E 004°22'0 0.0
2016-Feb-10 12:30N 51°54' E 004°22'0 0.0
2016-Feb-10 11:33N 51°54' E 004°22'0 0.0
2016-Feb-10 10:30N 51°54' E 004°22'0 0.0
2016-Feb-10 09:33N 51°54' E 004°22'0 0.0
2016-Feb-10 08:33N 51°54' E 004°22'0 0.0
2016-Feb-10 07:33N 51°54' E 004°22'0 0.0
2016-Feb-10 06:33N 51°54' E 004°22'0 0.0
2016-Feb-10 05:33N 51°54' E 004°22'0 0.0
2016-Feb-10 04:33N 51°54' E 004°22'0 0.0
2016-Feb-10 03:33N 51°54' E 004°22'0 0.0
2016-Feb-10 02:33N 51°54' E 004°22'0 0.0
2016-Feb-10 01:33N 51°54' E 004°22'0 0.0
2016-Feb-10 00:33N 51°54' E 004°22'0 0.0
2016-Feb-09 23:33N 51°54' E 004°22'0 0.0
2016-Feb-09 22:33N 51°54' E 004°22'0 0.0
2016-Feb-09 21:30N 51°54' E 004°22'0 0.0
2016-Feb-09 20:33N 51°54' E 004°22'0 0.0
2016-Feb-09 19:33N 51°54' E 004°22'0 0.0
2016-Feb-09 18:27N 51°54' E 004°22'0 0.0
2016-Feb-09 17:33N 51°54' E 004°22'0 0.0
2016-Feb-09 16:33N 51°54' E 004°22'0 0.0
2016-Feb-09 15:33N 51°54' E 004°22'0 0.0
2016-Feb-09 14:30N 51°54' E 004°22'0 0.0
2016-Feb-09 13:18N 51°54' E 004°22'0 0.0
2016-Feb-09 12:33N 51°54' E 004°22'0 0.0
2016-Feb-09 11:33N 51°54' E 004°22'0 0.0
2016-Feb-09 10:33N 51°54' E 004°22'6 5.8
2016-Feb-09 09:33N 51°56' E 004°13'4 3.6
2016-Feb-09 08:33N 51°58' E 004°08'2 2.1
2016-Feb-09 07:26N 51°56' E 004°11'0 0.0
2016-Feb-09 06:29N 51°56' E 004°11'0 0.0
2016-Feb-09 05:29N 51°56' E 004°11'0 0.0
2016-Feb-09 04:32N 51°56' E 004°11'0 0.0
2016-Feb-09 03:32N 51°56' E 004°11'0 0.0
2016-Feb-09 02:20N 51°56' E 004°11'0 0.0
2016-Feb-09 01:32N 51°56' E 004°11'0 0.0
2016-Feb-09 00:32N 51°56' E 004°11'0 0.0
2016-Feb-08 23:32N 51°56' E 004°11'0 0.0
2016-Feb-08 22:32N 51°56' E 004°11'0 0.0
2016-Feb-08 21:32N 51°56' E 004°11'0 0.0
2016-Feb-08 20:32N 51°56' E 004°11'0 0.0
2016-Feb-08 19:32N 51°56' E 004°11'0 0.0
2016-Feb-08 18:29N 51°56' E 004°11'0 0.0
2016-Feb-08 17:32N 51°56' E 004°11'0 0.0
2016-Feb-08 16:26N 51°56' E 004°11'0 0.0
2016-Feb-08 15:32N 51°56' E 004°11'0 0.0
2016-Feb-08 14:32N 51°56' E 004°11'2 2.2
2016-Feb-08 13:33N 51°57' E 004°08'0 0.0
2016-Feb-08 12:33N 51°57' E 004°08'0 0.0
2016-Feb-08 11:33N 51°57' E 004°08'0 0.0
2016-Feb-08 10:33N 51°57' E 004°08'0 0.0
2016-Feb-08 09:33N 51°57' E 004°08'0 0.0
2016-Feb-08 08:33N 51°57' E 004°08'0 0.0
2016-Feb-08 07:33N 51°57' E 004°08'0 0.0
2016-Feb-08 06:30N 51°57' E 004°08'0 0.0
2016-Feb-08 05:33N 51°57' E 004°08'0 0.0
2016-Feb-08 04:33N 51°57' E 004°08'0 0.0
2016-Feb-08 03:33N 51°57' E 004°08'0 0.0
2016-Feb-08 02:33N 51°57' E 004°08'0 0.0
2016-Feb-08 01:33N 51°57' E 004°08'0 0.0
2016-Feb-08 00:33N 51°57' E 004°08'0 0.0
2016-Feb-07 23:33N 51°57' E 004°08'0 0.0
2016-Feb-07 22:33N 51°57' E 004°08'0 0.0
2016-Feb-07 21:33N 51°57' E 004°08'0 0.0
2016-Feb-07 20:33N 51°57' E 004°08'0 0.0
2016-Feb-07 19:33N 51°57' E 004°08'0 0.0
2016-Feb-07 18:33N 51°57' E 004°08'0 0.0
2016-Feb-07 17:33N 51°57' E 004°08'0 0.0
2016-Feb-07 16:33N 51°57' E 004°08'0 0.0
2016-Feb-07 15:30N 51°57' E 004°08'0 0.0
2016-Feb-07 14:33N 51°57' E 004°08'0 0.0
2016-Feb-07 13:33N 51°57' E 004°08'0 0.0
2016-Feb-07 12:33N 51°57' E 004°08'0 0.0
2016-Feb-07 11:33N 51°57' E 004°08'0 0.0
2016-Feb-07 10:30N 51°57' E 004°08'0 0.2
2016-Feb-07 09:33N 51°57' E 004°08'4 4.3
2016-Feb-07 08:33N 51°59' E 004°02'9 9.2
2016-Feb-07 07:33N 51°59' E 003°47'31 1.8
2016-Feb-06 14:33N 51°46' E 003°01'1110.6
2016-Feb-06 13:32N 51°42' E 003°17'1212.6
2016-Feb-06 12:34N 51°31' E 003°26'1010.2
2016-Feb-06 11:33N 51°26' E 003°41'9 9.3
2016-Feb-06 10:33N 51°21' E 003°53'7 6.6
2016-Feb-06 09:34N 51°24' E 004°02'7 6.9
2016-Feb-06 08:34N 51°23' E 004°13'7 7.4
2016-Feb-06 07:33N 51°16' E 004°17'1 0.8
2016-Feb-06 06:33N 51°16' E 004°15'2 1.5
2016-Feb-06 05:34N 51°17' E 004°14'0 0.0
2016-Feb-06 04:34N 51°17' E 004°14'0 0.0
2016-Feb-06 03:31N 51°17' E 004°14'0 0.0
2016-Feb-06 02:34N 51°17' E 004°14'0 0.0
2016-Feb-06 01:31N 51°17' E 004°14'0 0.0
2016-Feb-06 00:34N 51°17' E 004°14'0 0.0
2016-Feb-05 23:28N 51°17' E 004°14'0 0.0
2016-Feb-05 22:31N 51°17' E 004°14'0 0.0
2016-Feb-05 21:34N 51°17' E 004°14'0 0.0
2016-Feb-05 20:31N 51°17' E 004°14'0 0.0
2016-Feb-05 19:34N 51°17' E 004°14'0 0.0
2016-Feb-05 18:31N 51°17' E 004°14'0 0.0
2016-Feb-05 17:33N 51°17' E 004°14'0 0.0
2016-Feb-05 16:30N 51°17' E 004°14'0 0.0
2016-Feb-05 15:28N 51°17' E 004°14'0 0.0
2016-Feb-05 14:31N 51°17' E 004°14'0 0.0
2016-Feb-05 13:31N 51°17' E 004°14'0 0.0
2016-Feb-05 10:24N 51°17' E 004°14'0 0.0
2016-Feb-05 09:30N 51°17' E 004°14'0 0.0
2016-Feb-05 08:21N 51°17' E 004°14'0 0.0
2016-Feb-05 07:06N 51°17' E 004°14'0 0.0
2016-Feb-05 06:30N 51°17' E 004°14'0 0.0
2016-Feb-05 05:33N 51°17' E 004°14'0 0.0
2016-Feb-05 03:33N 51°17' E 004°14'0 0.0
2016-Feb-05 02:33N 51°17' E 004°14'2 2.2
2016-Feb-05 01:34N 51°16' E 004°17'0 0.3
2016-Feb-05 00:33N 51°16' E 004°17'5 5.4
2016-Feb-04 23:33N 51°21' E 004°15'8 8.3
2016-Feb-04 22:33N 51°23' E 004°02'7 7.3
2016-Feb-04 21:33N 51°21' E 003°51'1111.1
2016-Feb-04 20:33N 51°26' E 003°35'1010.0
2016-Feb-04 19:32N 51°34' E 003°25'10 9.9
2016-Feb-04 18:34N 51°41' E 003°15'6 5.7
2016-Feb-04 17:32N 51°46' E 003°20'0 0.0
2016-Feb-04 16:32N 51°46' E 003°20'0 0.1
2016-Feb-04 15:32N 51°46' E 003°20'0 0.1
2016-Feb-04 14:29N 51°46' E 003°20'0 0.1
2016-Feb-04 12:14N 51°46' E 003°20'0 0.0
2016-Feb-04 07:32N 51°46' E 003°20'8 8.4
2016-Feb-04 06:33N 51°46' E 003°06'145 8.4
2016-Feb-03 13:23N 54°02' E 004°27'6 7.0
2016-Feb-03 12:33N 54°03' E 004°37'13 5.8
2016-Feb-03 10:21N 54°05' E 004°59'5 5.3
2016-Feb-03 09:21N 54°05' E 005°08'5 5.3
2016-Feb-03 08:30N 54°06' E 005°15'5 5.0
2016-Feb-03 07:33N 54°06' E 005°23'4 4.5
2016-Feb-03 06:34N 54°07' E 005°31'4 4.3
2016-Feb-03 05:33N 54°08' E 005°38'4 3.8
2016-Feb-03 04:33N 54°08' E 005°45'35 2.4
2016-Feb-02 14:05N 54°11' E 006°44'5 2.5
2016-Feb-02 12:05N 54°11' E 006°52'2 2.6
2016-Feb-02 11:26N 54°12' E 006°55'3 3.1
2016-Feb-02 10:33N 54°11' E 006°60'6 5.8
2016-Feb-02 09:33N 54°12' E 007°10'6 6.1
2016-Feb-02 08:33N 54°12' E 007°20'6 6.3
2016-Feb-02 07:33N 54°12' E 007°31'7 6.7
2016-Feb-02 06:34N 54°09' E 007°41'8 7.6
2016-Feb-02 05:34N 54°05' E 007°53'8 8.2
2016-Feb-02 04:34N 54°01' E 008°05'9 8.9
2016-Feb-02 03:34N 53°60' E 008°20'9 9.0
2016-Feb-02 02:34N 53°58' E 008°35'1010.5
2016-Feb-02 01:33N 53°51' E 008°47'1312.5
2016-Feb-02 00:33N 53°53' E 009°08'2 2.1
2016-Feb-01 23:33N 53°55' E 009°10'19 6.3
2016-Feb-01 20:33N 54°11' E 009°27'5 4.8
2016-Feb-01 19:30N 54°13' E 009°35'7 7.3
2016-Feb-01 18:34N 54°18' E 009°42'7 6.9
2016-Feb-01 17:33N 54°21' E 009°53'3 3.2
2016-Feb-01 16:34N 54°21' E 009°58'6 6.3
2016-Feb-01 15:33N 54°22' E 010°09'3 3.0
2016-Feb-01 14:34N 54°24' E 010°12'  
Track history (hours):
 
Tides and Currents Weather Stations Pressure Air Temp Water Temp Dewpoint Dewpoint Depression Visibility Wind Speed Wind Dir Waves Ship Positions

Sveva

Last reported at 2016-Feb-11 14:33 UTC. Time now 2016-Feb-13 21:30 UTC.
Position N 50°28' W 000°04'.

Length 136 m; draft 8.3 m.

Type: Ship (hazmat cat B). MMSI: 247359000.

Date/timePositionNaut miles runAvg speedWind from/ knotsBaromVisibWave heightAir tempDewpointWater temp
2016-Feb-11 14:33N 50°28' W 000°04'4811.9
2016-Feb-11 10:32N 50°50' E 001°02'1413.7
2016-Feb-11 09:33N 50°59' E 001°19'1615.6
2016-Feb-11 08:33N 51°09' E 001°37'1414.4
2016-Feb-11 07:33N 51°20' E 001°53'1412.5
2016-Feb-11 06:27N 51°31' E 002°06'1011.4
2016-Feb-11 05:33N 51°39' E 002°17'5010.0
2016-Feb-11 00:33N 52°03' E 003°28'1212.2
2016-Feb-10 23:34N 52°03' E 003°47'10 9.6
2016-Feb-10 22:34N 51°60' E 004°02'1312.7
2016-Feb-10 21:33N 51°54' E 004°20'1 1.1
2016-Feb-10 20:27N 51°54' E 004°22'0 0.0
2016-Feb-10 18:33N 51°54' E 004°22'0 0.0
2016-Feb-10 17:27N 51°54' E 004°22'0 0.0
2016-Feb-10 16:33N 51°54' E 004°22'0 0.0
2016-Feb-10 15:33N 51°54' E 004°22'0 0.0
2016-Feb-10 14:27N 51°54' E 004°22'0 0.0
2016-Feb-10 13:33N 51°54' E 004°22'0 0.0
2016-Feb-10 12:30N 51°54' E 004°22'0 0.0
2016-Feb-10 11:33N 51°54' E 004°22'0 0.0
2016-Feb-10 10:30N 51°54' E 004°22'0 0.0
2016-Feb-10 09:33N 51°54' E 004°22'0 0.0
2016-Feb-10 08:33N 51°54' E 004°22'0 0.0
2016-Feb-10 07:33N 51°54' E 004°22'0 0.0
2016-Feb-10 06:33N 51°54' E 004°22'0 0.0
2016-Feb-10 05:33N 51°54' E 004°22'0 0.0
2016-Feb-10 04:33N 51°54' E 004°22'0 0.0
2016-Feb-10 03:33N 51°54' E 004°22'0 0.0
2016-Feb-10 02:33N 51°54' E 004°22'0 0.0
2016-Feb-10 01:33N 51°54' E 004°22'0 0.0
2016-Feb-10 00:33N 51°54' E 004°22'0 0.0
2016-Feb-09 23:33N 51°54' E 004°22'0 0.0
2016-Feb-09 22:33N 51°54' E 004°22'0 0.0
2016-Feb-09 21:30N 51°54' E 004°22'0 0.0
2016-Feb-09 20:33N 51°54' E 004°22'0 0.0
2016-Feb-09 19:33N 51°54' E 004°22'0 0.0
2016-Feb-09 18:27N 51°54' E 004°22'0 0.0
2016-Feb-09 17:33N 51°54' E 004°22'0 0.0
2016-Feb-09 16:33N 51°54' E 004°22'0 0.0
2016-Feb-09 15:33N 51°54' E 004°22'0 0.0
2016-Feb-09 14:30N 51°54' E 004°22'0 0.0
2016-Feb-09 13:18N 51°54' E 004°22'0 0.0
2016-Feb-09 12:33N 51°54' E 004°22'0 0.0
2016-Feb-09 11:33N 51°54' E 004°22'0 0.0
2016-Feb-09 10:33N 51°54' E 004°22'6 5.8
2016-Feb-09 09:33N 51°56' E 004°13'4 3.6
2016-Feb-09 08:33N 51°58' E 004°08'2 2.1
2016-Feb-09 07:26N 51°56' E 004°11'0 0.0
2016-Feb-09 06:29N 51°56' E 004°11'0 0.0
2016-Feb-09 05:29N 51°56' E 004°11'0 0.0
2016-Feb-09 04:32N 51°56' E 004°11'0 0.0
2016-Feb-09 03:32N 51°56' E 004°11'0 0.0
2016-Feb-09 02:20N 51°56' E 004°11'0 0.0
2016-Feb-09 01:32N 51°56' E 004°11'0 0.0
2016-Feb-09 00:32N 51°56' E 004°11'0 0.0
2016-Feb-08 23:32N 51°56' E 004°11'0 0.0
2016-Feb-08 22:32N 51°56' E 004°11'0 0.0
2016-Feb-08 21:32N 51°56' E 004°11'0 0.0
2016-Feb-08 20:32N 51°56' E 004°11'0 0.0
2016-Feb-08 19:32N 51°56' E 004°11'0 0.0
2016-Feb-08 18:29N 51°56' E 004°11'0 0.0
2016-Feb-08 17:32N 51°56' E 004°11'0 0.0
2016-Feb-08 16:26N 51°56' E 004°11'0 0.0
2016-Feb-08 15:32N 51°56' E 004°11'0 0.0
2016-Feb-08 14:32N 51°56' E 004°11'2 2.2
2016-Feb-08 13:33N 51°57' E 004°08'0 0.0
2016-Feb-08 12:33N 51°57' E 004°08'0 0.0
2016-Feb-08 11:33N 51°57' E 004°08'0 0.0
2016-Feb-08 10:33N 51°57' E 004°08'0 0.0
2016-Feb-08 09:33N 51°57' E 004°08'0 0.0
2016-Feb-08 08:33N 51°57' E 004°08'0 0.0
2016-Feb-08 07:33N 51°57' E 004°08'0 0.0
2016-Feb-08 06:30N 51°57' E 004°08'0 0.0
2016-Feb-08 05:33N 51°57' E 004°08'0 0.0
2016-Feb-08 04:33N 51°57' E 004°08'0 0.0
2016-Feb-08 03:33N 51°57' E 004°08'0 0.0
2016-Feb-08 02:33N 51°57' E 004°08'0 0.0
2016-Feb-08 01:33N 51°57' E 004°08'0 0.0
2016-Feb-08 00:33N 51°57' E 004°08'0 0.0
2016-Feb-07 23:33N 51°57' E 004°08'0 0.0
2016-Feb-07 22:33N 51°57' E 004°08'0 0.0
2016-Feb-07 21:33N 51°57' E 004°08'0 0.0
2016-Feb-07 20:33N 51°57' E 004°08'0 0.0
2016-Feb-07 19:33N 51°57' E 004°08'0 0.0
2016-Feb-07 18:33N 51°57' E 004°08'0 0.0
2016-Feb-07 17:33N 51°57' E 004°08'0 0.0
2016-Feb-07 16:33N 51°57' E 004°08'0 0.0
2016-Feb-07 15:30N 51°57' E 004°08'0 0.0
2016-Feb-07 14:33N 51°57' E 004°08'0 0.0
2016-Feb-07 13:33N 51°57' E 004°08'0 0.0
2016-Feb-07 12:33N 51°57' E 004°08'0 0.0
2016-Feb-07 11:33N 51°57' E 004°08'0 0.0
2016-Feb-07 10:30N 51°57' E 004°08'0 0.2
2016-Feb-07 09:33N 51°57' E 004°08'4 4.3
2016-Feb-07 08:33N 51°59' E 004°02'9 9.2
2016-Feb-07 07:33N 51°59' E 003°47'31 1.8
2016-Feb-06 14:33N 51°46' E 003°01'1110.6
2016-Feb-06 13:32N 51°42' E 003°17'1212.6
2016-Feb-06 12:34N 51°31' E 003°26'1010.2
2016-Feb-06 11:33N 51°26' E 003°41'9 9.3
2016-Feb-06 10:33N 51°21' E 003°53'7 6.6
2016-Feb-06 09:34N 51°24' E 004°02'7 6.9
2016-Feb-06 08:34N 51°23' E 004°13'7 7.4
2016-Feb-06 07:33N 51°16' E 004°17'1 0.8
2016-Feb-06 06:33N 51°16' E 004°15'2 1.5
2016-Feb-06 05:34N 51°17' E 004°14'0 0.0
2016-Feb-06 04:34N 51°17' E 004°14'0 0.0
2016-Feb-06 03:31N 51°17' E 004°14'0 0.0
2016-Feb-06 02:34N 51°17' E 004°14'0 0.0
2016-Feb-06 01:31N 51°17' E 004°14'0 0.0
2016-Feb-06 00:34N 51°17' E 004°14'0 0.0
2016-Feb-05 23:28N 51°17' E 004°14'0 0.0
2016-Feb-05 22:31N 51°17' E 004°14'0 0.0
2016-Feb-05 21:34N 51°17' E 004°14'0 0.0
2016-Feb-05 20:31N 51°17' E 004°14'0 0.0
2016-Feb-05 19:34N 51°17' E 004°14'0 0.0
2016-Feb-05 18:31N 51°17' E 004°14'0 0.0
2016-Feb-05 17:33N 51°17' E 004°14'0 0.0
2016-Feb-05 16:30N 51°17' E 004°14'0 0.0
2016-Feb-05 15:28N 51°17' E 004°14'0 0.0
2016-Feb-05 14:31N 51°17' E 004°14'0 0.0
2016-Feb-05 13:31N 51°17' E 004°14'0 0.0
2016-Feb-05 10:24N 51°17' E 004°14'0 0.0
2016-Feb-05 09:30N 51°17' E 004°14'0 0.0
2016-Feb-05 08:21N 51°17' E 004°14'0 0.0
2016-Feb-05 07:06N 51°17' E 004°14'0 0.0
2016-Feb-05 06:30N 51°17' E 004°14'0 0.0
2016-Feb-05 05:33N 51°17' E 004°14'0 0.0
2016-Feb-05 03:33N 51°17' E 004°14'0 0.0
2016-Feb-05 02:33N 51°17' E 004°14'2 2.2
2016-Feb-05 01:34N 51°16' E 004°17'0 0.3
2016-Feb-05 00:33N 51°16' E 004°17'5 5.4
2016-Feb-04 23:33N 51°21' E 004°15'8 8.3
2016-Feb-04 22:33N 51°23' E 004°02'7 7.3
2016-Feb-04 21:33N 51°21' E 003°51'1111.1
2016-Feb-04 20:33N 51°26' E 003°35'1010.0
2016-Feb-04 19:32N 51°34' E 003°25'10 9.9
2016-Feb-04 18:34N 51°41' E 003°15'6 5.7
2016-Feb-04 17:32N 51°46' E 003°20'0 0.0
2016-Feb-04 16:32N 51°46' E 003°20'0 0.1
2016-Feb-04 15:32N 51°46' E 003°20'0 0.1
2016-Feb-04 14:29N 51°46' E 003°20'0 0.1
2016-Feb-04 12:14N 51°46' E 003°20'0 0.0
2016-Feb-04 07:32N 51°46' E 003°20'8 8.4
2016-Feb-04 06:33N 51°46' E 003°06'145 8.4
2016-Feb-03 13:23N 54°02' E 004°27'6 7.0
2016-Feb-03 12:33N 54°03' E 004°37'13 5.8
2016-Feb-03 10:21N 54°05' E 004°59'5 5.3
2016-Feb-03 09:21N 54°05' E 005°08'5 5.3
2016-Feb-03 08:30N 54°06' E 005°15'5 5.0
2016-Feb-03 07:33N 54°06' E 005°23'4 4.5
2016-Feb-03 06:34N 54°07' E 005°31'4 4.3
2016-Feb-03 05:33N 54°08' E 005°38'4 3.8
2016-Feb-03 04:33N 54°08' E 005°45'35 2.4
2016-Feb-02 14:05N 54°11' E 006°44'5 2.5
2016-Feb-02 12:05N 54°11' E 006°52'2 2.6
2016-Feb-02 11:26N 54°12' E 006°55'3 3.1
2016-Feb-02 10:33N 54°11' E 006°60'6 5.8
2016-Feb-02 09:33N 54°12' E 007°10'6 6.1
2016-Feb-02 08:33N 54°12' E 007°20'6 6.3
2016-Feb-02 07:33N 54°12' E 007°31'7 6.7
2016-Feb-02 06:34N 54°09' E 007°41'8 7.6
2016-Feb-02 05:34N 54°05' E 007°53'8 8.2
2016-Feb-02 04:34N 54°01' E 008°05'9 8.9
2016-Feb-02 03:34N 53°60' E 008°20'9 9.0
2016-Feb-02 02:34N 53°58' E 008°35'1010.5
2016-Feb-02 01:33N 53°51' E 008°47'1312.5
2016-Feb-02 00:33N 53°53' E 009°08'2 2.1
2016-Feb-01 23:33N 53°55' E 009°10'19 6.3
2016-Feb-01 20:33N 54°11' E 009°27'5 4.8
2016-Feb-01 19:30N 54°13' E 009°35'7 7.3
2016-Feb-01 18:34N 54°18' E 009°42'7 6.9
2016-Feb-01 17:33N 54°21' E 009°53'3 3.2
2016-Feb-01 16:34N 54°21' E 009°58'6 6.3
2016-Feb-01 15:33N 54°22' E 010°09'3 3.0
2016-Feb-01 14:34N 54°24' E 010°12'  

Dump ship's entire track history